Time;durP1;ratioP1;P1;durP2;ratioP2;P2;SDS_P1;SDS_P2;PMS_P1;PMS_P2;Temp;Humidity;BMP_temperature;BMP_pressure;BME280_temperature;BME280_humidity;BME280_pressure;Samples;Min_cycle;Max_cycle;Signal;HPM_P1;HPM_P2
2022/05/16 03:58:30;;;;;;;8.50;4.18;;;;;;;18.21;54.07;100784.12;5606000;31;80492;-59
2022/05/16 04:01:32;;;;;;;10.77;4.37;;;;;;;18.21;54.07;100784.12;5583475;31;34073;-59
2022/05/16 04:04:35;;;;;;;8.07;4.37;;;;;;;17.79;53.50;100793.88;5583754;32;33685;-59
2022/05/16 04:07:37;;;;;;;9.25;4.15;;;;;;;17.85;54.05;100792.63;5583714;31;33612;-58
2022/05/16 04:10:39;;;;;;;7.35;4.50;;;;;;;17.90;58.39;100800.56;5583155;31;33881;-58
2022/05/16 04:13:43;;;;;;;7.18;4.32;;;;;;;17.89;54.43;100796.28;5583728;31;33668;-59
2022/05/16 04:16:45;;;;;;;11.07;5.07;;;;;;;17.95;56.25;100815.91;5583665;32;33528;-59
2022/05/16 04:19:47;;;;;;;9.00;4.40;;;;;;;18.00;62.58;100815.75;5583988;32;34109;-58
2022/05/16 04:22:50;;;;;;;8.43;4.22;;;;;;;18.06;54.85;100806.31;5583714;31;33667;-59
2022/05/16 04:25:52;;;;;;;8.18;4.20;;;;;;;18.21;54.35;100814.00;5583883;32;33676;-59
2022/05/16 04:28:54;;;;;;;8.50;4.00;;;;;;;18.34;54.37;100820.34;5583753;31;33612;-59
2022/05/16 04:31:57;;;;;;;9.25;4.40;;;;;;;18.51;54.10;100827.69;5584036;32;33573;-59
2022/05/16 04:35:01;;;;;;;6.75;4.30;;;;;;;18.62;50.96;100814.53;5584437;31;34129;-59
2022/05/16 04:38:04;;;;;;;9.02;3.95;;;;;;;18.65;54.30;100825.56;5580428;31;33700;-59
2022/05/16 04:44:30;;;;;;;7.95;4.03;;;;;;;18.76;47.49;100820.59;5575937;32;34309;-59
2022/05/16 04:47:32;;;;;;;7.57;3.85;;;;;;;18.92;49.27;100829.03;5564048;32;34329;-59
2022/05/16 04:50:35;;;;;;;8.82;4.07;;;;;;;19.02;53.50;100828.66;5571731;32;33686;-59
2022/05/16 04:53:38;;;;;;;9.77;3.45;;;;;;;18.96;56.11;100821.81;5562531;32;33695;-59
2022/05/16 04:56:40;;;;;;;9.43;3.67;;;;;;;19.08;48.76;100826.56;5572242;32;34344;-59
2022/05/16 04:59:46;;;;;;;7.45;3.67;;;;;;;19.11;50.78;100824.00;5581283;31;33558;-59
2022/05/16 05:02:49;;;;;;;9.05;3.85;;;;;;;19.11;51.41;100834.88;5570087;32;33685;-59
2022/05/16 05:05:57;;;;;;;5.95;2.87;;;;;;;19.30;46.86;100830.91;5580388;32;34059;-58
2022/05/16 05:08:59;;;;;;;5.75;3.22;;;;;;;19.45;48.02;100831.16;5573620;31;33742;-59
2022/05/16 05:15:22;;;;;;;6.45;3.20;;;;;;;19.67;48.49;100832.03;5550781;32;34308;-58
2022/05/16 05:18:25;;;;;;;6.03;3.12;;;;;;;19.77;44.12;100825.38;5563335;32;34475;-58
2022/05/16 05:21:27;;;;;;;6.45;3.03;;;;;;;19.76;42.13;100834.66;5568916;32;33291;-58
2022/05/16 05:24:35;;;;;;;10.25;3.17;;;;;;;19.87;47.60;100830.44;5569724;32;33353;-59
2022/05/16 05:27:39;;;;;;;9.30;3.62;;;;;;;20.05;44.99;100829.16;5569863;32;33785;-58
2022/05/16 05:30:41;;;;;;;6.87;3.00;;;;;;;20.19;42.75;100829.69;5568480;32;34370;-59
2022/05/16 05:33:43;;;;;;;6.90;3.33;;;;;;;20.39;45.25;100830.78;5561422;32;33696;-59
2022/05/16 05:36:46;;;;;;;6.55;3.42;;;;;;;20.43;43.48;100833.66;5550512;32;34408;-59
2022/05/16 05:39:48;;;;;;;10.85;3.00;;;;;;;20.39;42.82;100838.16;5549836;32;34125;-59
2022/05/16 05:42:51;;;;;;;13.93;3.60;;;;;;;20.40;44.95;100832.38;5565116;32;33775;-59
2022/05/16 05:45:53;;;;;;;9.48;3.30;;;;;;;20.39;45.20;100835.44;5568967;32;33575;-59
2022/05/16 05:48:58;;;;;;;8.02;3.25;;;;;;;20.48;41.56;100841.59;5569408;32;33647;-58
2022/05/16 05:52:00;;;;;;;8.68;2.50;;;;;;;20.62;38.92;100836.66;5569337;32;33660;-59
2022/05/16 05:55:04;;;;;;;8.88;2.53;;;;;;;20.77;40.78;100842.62;5568658;32;34425;-59
2022/05/16 05:58:06;;;;;;;12.93;3.15;;;;;;;20.86;42.38;100840.56;5568453;32;33722;-59
2022/05/16 06:01:09;;;;;;;4.65;2.40;;;;;;;20.94;41.45;100844.34;5569287;32;33718;-59
2022/05/16 06:04:11;;;;;;;5.45;2.60;;;;;;;20.96;44.55;100848.31;5556693;32;34354;-59
2022/05/16 06:07:14;;;;;;;5.43;2.75;;;;;;;20.96;41.99;100851.06;5567982;32;33642;-59
2022/05/16 06:10:16;;;;;;;8.63;2.95;;;;;;;21.00;39.55;100851.97;5569265;32;33577;-59
2022/05/16 06:13:19;;;;;;;6.93;2.85;;;;;;;21.01;41.19;100850.03;5567764;32;33261;-59
2022/05/16 06:16:21;;;;;;;10.70;3.03;;;;;;;20.95;47.77;100862.28;5566462;32;33446;-57
2022/05/16 06:19:24;;;;;;;10.73;3.10;;;;;;;20.87;43.32;100853.06;5568373;32;33536;-59
2022/05/16 06:22:26;;;;;;;12.07;3.42;;;;;;;21.01;41.29;100845.34;5568444;32;33644;-59
2022/05/16 06:25:31;;;;;;;14.82;3.10;;;;;;;21.15;41.54;100849.69;5567981;32;33783;-59
2022/05/16 06:28:37;;;;;;;8.05;3.05;;;;;;;21.32;38.74;100857.63;5569107;32;33462;-58
2022/05/16 06:31:39;;;;;;;;;;;;;;;21.31;39.94;100848.66;5569196;32;34242;-59
2022/05/16 06:34:41;;;;;;;7.22;3.20;;;;;;;21.38;41.77;100852.78;5558632;32;34017;-59
2022/05/16 06:37:44;;;;;;;9.07;2.72;;;;;;;21.39;39.73;100846.19;5549590;32;34373;-59
2022/05/16 06:40:47;;;;;;;5.90;2.70;;;;;;;21.45;39.00;100847.56;5549271;32;33623;-59
2022/05/16 06:43:49;;;;;;;11.20;3.00;;;;;;;21.60;39.45;100843.34;5548129;32;33652;-60
2022/05/16 06:46:52;;;;;;;10.23;3.12;;;;;;;21.67;41.99;100841.63;5548632;32;33682;-59
2022/05/16 06:49:54;;;;;;;6.87;2.90;;;;;;;21.75;38.88;100835.22;5564005;32;33377;-59
2022/05/16 06:52:57;;;;;;;8.82;2.97;;;;;;;21.95;38.25;100838.13;5567938;32;34256;-59
2022/05/16 06:56:00;;;;;;;7.18;2.90;;;;;;;21.99;38.29;100836.31;5568575;32;34155;-59
2022/05/16 06:59:02;;;;;;;6.20;2.60;;;;;;;22.00;45.83;100846.09;5568517;32;34513;-58
2022/05/16 07:02:06;;;;;;;6.97;2.90;;;;;;;22.09;41.63;100843.22;5568854;32;33794;-59
2022/05/16 07:05:09;;;;;;;6.70;2.80;;;;;;;22.18;40.23;100843.87;5568105;32;33536;-59
2022/05/16 07:08:15;;;;;;;5.57;2.37;;;;;;;22.31;38.50;100850.09;5549023;32;34423;-59
2022/05/16 07:11:18;;;;;;;9.30;2.90;;;;;;;22.39;39.61;100847.22;5567236;32;33696;-59
2022/05/16 07:14:20;;;;;;;11.02;2.67;;;;;;;22.44;39.20;100854.37;5568428;32;33744;-59
2022/05/16 07:17:22;;;;;;;6.62;2.42;;;;;;;22.59;38.24;100841.91;5569068;32;33663;-60
2022/05/16 07:20:24;;;;;;;25.52;4.12;;;;;;;22.70;44.92;100834.75;5568139;32;33678;-59
2022/05/16 07:23:27;;;;;;;5.10;2.22;;;;;;;22.80;37.85;100841.66;5569092;32;33741;-59
2022/05/16 07:29:50;;;;;;;6.72;2.30;;;;;;;22.74;41.37;100830.97;5568141;32;33703;-59
2022/05/16 07:32:53;;;;;;;11.25;2.85;;;;;;;22.73;34.83;100839.53;5556556;32;33276;-60
2022/05/16 07:35:56;;;;;;;8.10;2.50;;;;;;;22.81;35.51;100843.22;5564589;32;33318;-59
2022/05/16 07:38:58;;;;;;;5.97;2.12;;;;;;;22.82;36.33;100845.62;5565974;32;34317;-60
2022/05/16 07:42:02;;;;;;;7.37;2.92;;;;;;;22.95;34.23;100844.44;5568074;32;33589;-60
2022/05/16 07:45:07;;;;;;;6.15;2.45;;;;;;;23.00;39.12;100848.81;5567801;32;33269;-59
2022/05/16 07:48:09;;;;;;;11.48;2.50;;;;;;;23.08;35.31;100841.56;5554032;32;33541;-59
2022/05/16 07:51:11;;;;;;;10.05;2.83;;;;;;;23.19;38.24;100845.38;5548806;32;34189;-59
2022/05/16 07:54:14;;;;;;;8.13;2.62;;;;;;;23.23;35.43;100840.78;5567159;32;34329;-59
2022/05/16 07:57:16;;;;;;;7.60;2.45;;;;;;;23.34;35.17;100844.56;5567975;32;33720;-60
2022/05/16 08:00:21;;;;;;;4.60;2.45;;;;;;;23.31;34.59;100845.28;5566295;32;33675;-59
2022/05/16 08:03:25;;;;;;;9.55;2.85;;;;;;;23.34;34.43;100841.03;5564699;32;34357;-58
2022/05/16 08:06:28;;;;;;;6.10;2.70;;;;;;;23.39;34.37;100841.56;5566339;32;34202;-60
2022/05/16 08:12:52;;;;;;;7.62;2.70;;;;;;;23.28;33.66;100837.78;5567069;32;33681;-60
2022/05/16 08:15:55;;;;;;;5.55;2.45;;;;;;;23.17;39.53;100843.00;5566676;32;33682;-60
2022/05/16 08:18:58;;;;;;;11.50;3.12;;;;;;;23.08;36.04;100847.88;5567889;32;33837;-59
2022/05/16 08:22:03;;;;;;;7.47;2.53;;;;;;;23.19;37.03;100848.13;5566729;32;33743;-59
2022/05/16 08:25:06;;;;;;;6.05;2.37;;;;;;;23.34;39.27;100847.28;5567198;32;33577;-59
2022/05/16 08:28:08;;;;;;;8.90;3.00;;;;;;;23.47;39.67;100845.25;5566108;32;34403;-59
2022/05/16 08:31:11;;;;;;;8.00;2.42;;;;;;;23.42;35.56;100846.31;5564890;32;33726;-60
2022/05/16 08:34:13;;;;;;;7.45;3.08;;;;;;;23.48;35.61;100846.03;5562031;32;33605;-59
2022/05/16 08:40:36;;;;;;;10.75;3.00;;;;;;;23.61;35.58;100844.78;5547668;32;34395;-60
2022/05/16 08:44:21;;;;;;;8.73;3.00;;;;;;;23.58;34.38;100845.50;5558320;32;33865;-60
2022/05/16 08:47:54;;;;;;;5.15;2.45;;;;;;;23.39;33.53;100836.09;5568707;32;33662;-60
2022/05/16 08:51:04;;;;;;;22.02;3.35;;;;;;;23.47;34.50;100836.25;5569191;32;34350;-59
2022/05/16 08:54:12;;;;;;;18.02;3.40;;;;;;;23.53;34.26;100827.41;5566808;32;34402;-59
2022/05/16 08:57:27;;;;;;;14.15;3.72;;;;;;;23.64;35.38;100836.66;5568332;32;34379;-59
2022/05/16 09:01:07;;;;;;;6.90;2.78;;;;;;;23.72;34.84;100848.56;5574652;31;33625;-59
2022/05/16 09:04:15;;;;;;;17.42;3.20;;;;;;;23.79;34.11;100837.78;5552941;32;34395;-59
2022/05/16 09:07:42;;;;;;;16.33;3.62;;;;;;;23.78;35.89;100844.41;5565901;32;34498;-60
2022/05/16 09:11:06;;;;;;;29.33;3.67;;;;;;;23.73;33.86;100838.41;5569140;32;34256;-59
2022/05/16 09:14:20;;;;;;;12.10;3.90;;;;;;;23.80;35.06;100839.34;5568101;32;33813;-59
2022/05/16 09:17:44;;;;;;;9.32;2.97;;;;;;;23.86;33.11;100837.13;5567289;32;33895;-59
2022/05/16 09:20:50;;;;;;;7.30;2.83;;;;;;;23.86;34.23;100837.91;5561905;32;33804;-59
2022/05/16 09:24:24;;;;;;;12.68;3.12;;;;;;;23.89;35.04;100833.69;5562866;32;34352;-59
2022/05/16 09:31:00;;;;;;;6.90;2.90;;;;;;;23.99;36.04;100824.88;5564934;32;33764;-59
2022/05/16 09:34:03;;;;;;;11.65;3.03;;;;;;;24.08;35.63;100824.69;5558013;32;33789;-59
2022/05/16 09:37:05;;;;;;;7.87;2.78;;;;;;;24.10;35.34;100819.63;5562342;32;33295;-58
2022/05/16 09:40:08;;;;;;;31.20;4.12;;;;;;;24.14;34.10;100815.81;5567689;32;33766;-59
2022/05/16 09:43:19;;;;;;;9.43;3.00;;;;;;;24.19;34.16;100811.97;5564341;32;33664;-58
2022/05/16 09:46:43;;;;;;;7.65;2.92;;;;;;;24.22;32.54;100811.25;5564733;32;33687;-59
2022/05/16 09:50:14;;;;;;;7.62;3.53;;;;;;;24.19;33.62;100811.97;5566202;32;34312;-60
2022/05/16 09:53:17;;;;;;;8.45;3.15;;;;;;;24.22;35.69;100799.50;5568552;32;33759;-60
2022/05/16 09:56:25;;;;;;;8.77;2.75;;;;;;;24.30;34.81;100810.22;5568706;32;34360;-60
2022/05/16 09:59:47;;;;;;;6.40;2.80;;;;;;;24.30;34.77;100798.47;5567582;32;33165;-60
2022/05/16 10:03:12;;;;;;;9.13;2.97;;;;;;;24.29;34.97;100805.12;5566795;32;34280;-59
2022/05/16 10:06:36;;;;;;;10.82;3.28;;;;;;;24.27;32.84;100791.78;5566850;32;33692;-59
2022/05/16 10:09:49;;;;;;;9.02;3.10;;;;;;;24.33;35.19;100793.06;5565807;32;33682;-59
2022/05/16 10:12:54;;;;;;;9.77;4.10;;;;;;;24.47;35.23;100786.28;5563309;32;34395;-59
2022/05/16 10:16:00;;;;;;;10.40;3.67;;;;;;;24.58;33.66;100784.53;5563888;32;34610;-59
2022/05/16 10:19:07;;;;;;;7.25;3.75;;;;;;;24.52;34.22;100780.50;5565392;32;34098;-59
2022/05/16 10:22:19;;;;;;;10.52;3.20;;;;;;;24.55;36.47;100769.59;5566935;32;34470;-59
2022/05/16 10:25:27;;;;;;;6.47;2.80;;;;;;;24.62;34.75;100774.41;5566945;32;34460;-58
2022/05/16 10:28:42;;;;;;;9.30;3.20;;;;;;;24.68;33.24;100778.44;5567491;32;33745;-58
2022/05/16 10:35:18;;;;;;;6.95;3.08;;;;;;;24.56;33.47;100770.41;5566329;32;34535;-59
2022/05/16 10:38:32;;;;;;;7.15;2.97;;;;;;;24.54;34.11;100770.00;5567922;32;33750;-58
2022/05/16 10:42:05;;;;;;;8.10;3.30;;;;;;;24.55;34.17;100771.56;5563924;32;33796;-60
2022/05/16 10:45:18;;;;;;;8.90;3.10;;;;;;;24.51;32.89;100762.50;5555155;32;34409;-59
2022/05/16 10:48:39;;;;;;;7.55;3.03;;;;;;;24.52;32.77;100764.84;5564896;32;33591;-59
2022/05/16 10:51:52;;;;;;;6.82;2.80;;;;;;;24.78;34.90;100777.03;5549604;32;34351;-60
2022/05/16 10:54:55;;;;;;;8.07;3.28;;;;;;;24.75;33.62;100775.81;5566942;32;34311;-59
2022/05/16 10:58:09;;;;;;;7.40;3.15;;;;;;;24.78;34.09;100771.56;5566476;32;34335;-59
2022/05/16 11:01:21;;;;;;;7.20;3.20;;;;;;;24.86;33.34;100767.75;5561953;32;34247;-59
2022/05/16 11:04:38;;;;;;;5.68;3.00;;;;;;;24.90;33.29;100767.81;5564440;32;36526;-59
2022/05/16 11:07:50;;;;;;;10.52;3.35;;;;;;;24.93;32.40;100756.88;5566923;32;33704;-59
2022/05/16 11:10:55;;;;;;;5.70;2.85;;;;;;;24.95;33.69;100751.06;5566010;32;33622;-60
2022/05/16 11:14:28;;;;;;;8.77;3.60;;;;;;;25.06;33.18;100754.72;5566829;32;33645;-60
2022/05/16 11:17:41;;;;;;;5.80;2.97;;;;;;;25.02;34.08;100749.19;5564429;32;33054;-60
2022/05/16 11:20:54;;;;;;;10.73;3.60;;;;;;;25.10;32.42;100744.63;5568346;32;33606;-59
2022/05/16 11:24:21;;;;;;;11.15;3.42;;;;;;;25.11;33.52;100740.72;5566786;32;33607;-58
2022/05/16 11:27:41;;;;;;;8.48;3.10;;;;;;;25.09;33.30;100743.81;5566099;32;34410;-59
2022/05/16 11:31:08;;;;;;;7.68;3.50;;;;;;;25.06;33.43;100736.31;5567072;32;33646;-60
2022/05/16 11:34:19;;;;;;;11.12;3.67;;;;;;;25.01;33.79;100730.38;5566471;32;33796;-59
2022/05/16 11:37:58;;;;;;;7.60;3.15;;;;;;;25.03;34.14;100731.59;5567714;32;33761;-59
2022/05/16 11:41:28;;;;;;;8.02;3.37;;;;;;;25.01;33.58;100731.16;5558643;32;33610;-60
2022/05/16 11:44:35;;;;;;;8.32;3.65;;;;;;;25.03;32.46;100725.28;5558573;32;34438;-59
2022/05/16 11:47:46;;;;;;;15.05;3.40;;;;;;;25.10;32.80;100719.94;5551430;32;33762;-59
2022/05/16 11:51:27;;;;;;;8.40;3.28;;;;;;;25.13;33.30;100716.47;5564790;32;33656;-59
2022/05/16 11:54:34;;;;;;;8.10;3.20;;;;;;;25.26;33.77;100717.03;5566978;32;33689;-58
2022/05/16 12:01:07;;;;;;;5.78;3.12;;;;;;;25.29;33.78;100710.78;5566636;32;33387;-59
2022/05/16 12:04:10;;;;;;;4.75;3.05;;;;;;;25.37;34.56;100700.72;5565433;32;33836;-59
2022/05/16 12:07:39;;;;;;;5.80;3.53;;;;;;;25.46;33.49;100701.22;5566742;32;33888;-59
2022/05/16 12:11:03;;;;;;;6.37;3.53;;;;;;;25.46;32.98;100695.72;5552842;32;34470;-59
2022/05/16 12:14:11;;;;;;;9.30;3.67;;;;;;;25.40;33.48;100689.00;5568060;32;34424;-59
2022/05/16 12:17:13;;;;;;;7.03;3.33;;;;;;;25.44;33.26;100692.56;5565119;32;34341;-59
2022/05/16 12:20:16;;;;;;;7.30;3.53;;;;;;;25.59;32.56;100693.50;5568553;32;33659;-59
2022/05/16 12:23:54;;;;;;;6.82;3.10;;;;;;;25.64;34.80;100684.97;5562065;32;34369;-59
2022/05/16 12:27:07;;;;;;;6.40;3.65;;;;;;;25.57;35.44;100690.38;5562131;32;34106;-60
2022/05/16 12:30:38;;;;;;;7.15;3.67;;;;;;;25.54;34.21;100684.47;5569572;32;33651;-59
2022/05/16 12:33:40;;;;;;;8.05;3.58;;;;;;;25.52;33.32;100678.53;5567849;32;34356;-59
2022/05/16 12:36:42;;;;;;;9.73;3.47;;;;;;;25.48;34.49;100666.75;5569188;32;33692;-59
2022/05/16 12:39:51;;;;;;;6.97;3.40;;;;;;;25.57;33.58;100662.94;5568333;32;33814;-60
2022/05/16 12:43:18;;;;;;;7.20;3.70;;;;;;;25.60;35.81;100649.25;5566520;32;33656;-59
2022/05/16 12:46:51;;;;;;;7.50;3.58;;;;;;;25.62;35.02;100638.66;5551193;32;34253;-59
2022/05/16 12:50:22;;;;;;;9.70;3.20;;;;;;;25.48;33.97;100638.50;5551147;32;33756;-59
2022/05/16 12:53:51;;;;;;;7.40;3.28;;;;;;;25.50;36.07;100628.75;5558691;32;33855;-59
2022/05/16 12:56:57;;;;;;;9.93;3.75;;;;;;;25.65;34.32;100624.19;5549408;32;33696;-59
2022/05/16 13:00:12;;;;;;;7.90;3.67;;;;;;;25.67;35.31;100619.09;5557844;32;33902;-60
2022/05/16 13:03:43;;;;;;;7.45;3.85;;;;;;;25.68;34.94;100615.19;5567170;31;34409;-58
2022/05/16 13:06:49;;;;;;;8.73;3.47;;;;;;;25.83;35.20;100609.84;5564159;32;33713;-59
2022/05/16 13:10:06;;;;;;;8.52;3.67;;;;;;;25.88;33.74;100609.53;5570082;32;33363;-59
2022/05/16 13:13:39;;;;;;;7.35;3.45;;;;;;;25.80;33.60;100600.44;5568141;32;33750;-58
2022/05/16 13:16:53;;;;;;;14.35;4.35;;;;;;;25.86;34.66;100596.19;5560199;32;34107;-60
2022/05/16 13:19:55;;;;;;;7.35;3.60;;;;;;;25.87;34.15;100592.25;5567460;32;33631;-60
2022/05/16 13:22:58;;;;;;;10.77;4.20;;;;;;;25.86;33.86;100587.13;5568285;32;33801;-60
2022/05/16 13:29:22;;;;;;;10.02;4.03;;;;;;;25.93;34.40;100588.00;5565989;32;33690;-60
2022/05/16 13:32:29;;;;;;;9.90;3.65;;;;;;;25.87;35.10;100580.50;5567753;32;33913;-58
2022/05/16 13:35:37;;;;;;;8.05;4.30;;;;;;;25.97;35.63;100582.53;5540195;32;34456;-59
2022/05/16 13:38:39;;;;;;;8.18;3.85;;;;;;;25.96;34.44;100579.00;5567479;32;33830;-59
2022/05/16 13:41:42;;;;;;;7.65;3.70;;;;;;;25.99;34.53;100574.69;5565833;32;33864;-59
2022/05/16 13:44:45;;;;;;;12.85;3.80;;;;;;;25.96;34.39;100580.94;5561660;31;33660;-59
2022/05/16 13:47:47;;;;;;;14.50;4.90;;;;;;;26.01;34.02;100573.13;5568264;32;33898;-59
2022/05/16 13:50:49;;;;;;;12.10;4.50;;;;;;;26.04;34.41;100563.34;5568721;32;34251;-59
2022/05/16 13:53:52;;;;;;;13.13;4.10;;;;;;;26.09;33.53;100571.22;5562136;32;34142;-59
2022/05/16 13:57:01;;;;;;;10.15;3.95;;;;;;;26.09;33.35;100562.19;5566826;32;34346;-60
2022/05/16 14:00:20;;;;;;;18.80;4.87;;;;;;;26.11;34.86;100563.41;5568166;32;32989;-58
2022/05/16 14:03:33;;;;;;;14.55;4.32;;;;;;;26.19;34.67;100561.50;5565469;32;34432;-59
2022/05/16 14:06:37;;;;;;;12.52;4.35;;;;;;;26.33;35.14;100566.31;5567521;31;33664;-60
2022/05/16 14:09:56;;;;;;;8.93;4.07;;;;;;;26.20;34.56;100563.09;5569891;32;34374;-60
2022/05/16 14:13:02;;;;;;;9.93;4.20;;;;;;;26.14;35.17;100570.09;5566092;31;34493;-60
2022/05/16 14:16:15;;;;;;;11.52;4.30;;;;;;;26.16;35.30;100563.06;5564972;32;34209;-59
2022/05/16 14:19:42;;;;;;;14.48;3.80;;;;;;;26.21;36.29;100559.94;5563648;32;33769;-59
2022/05/16 14:22:50;;;;;;;15.60;4.07;;;;;;;26.15;35.17;100549.69;5561002;32;33848;-59
2022/05/16 14:25:54;;;;;;;9.07;3.60;;;;;;;26.11;36.03;100544.16;5567129;32;35219;-59
2022/05/16 14:29:18;;;;;;;7.43;4.20;;;;;;;26.15;34.43;100544.97;5568092;32;34455;-59
2022/05/16 14:32:20;;;;;;;10.85;3.62;;;;;;;26.18;34.60;100535.19;5564788;32;34256;-59
2022/05/16 14:35:27;;;;;;;11.65;4.00;;;;;;;26.13;34.62;100535.56;5565917;32;33729;-59
2022/05/16 14:38:48;;;;;;;7.78;3.42;;;;;;;26.00;33.86;100535.87;5565634;32;33704;-59
2022/05/16 14:42:03;;;;;;;9.07;3.78;;;;;;;26.14;33.83;100526.94;5549685;32;33751;-59
2022/05/16 14:45:10;;;;;;;14.68;3.83;;;;;;;26.11;34.59;100527.69;5552068;32;33863;-59
2022/05/16 14:48:12;;;;;;;9.15;3.83;;;;;;;26.05;36.82;100526.47;5565006;32;34296;-58
2022/05/16 14:51:21;;;;;;;7.62;3.50;;;;;;;26.14;36.71;100526.16;5566142;32;33700;-59
2022/05/16 14:54:39;;;;;;;11.02;3.90;;;;;;;26.15;33.58;100523.00;5565420;32;34598;-58
2022/05/16 14:57:43;;;;;;;7.45;3.50;;;;;;;26.08;34.33;100522.97;5563156;32;34266;-59
2022/05/16 15:04:07;;;;;;;7.68;3.65;;;;;;;25.96;35.20;100518.56;5560131;32;33815;-58
2022/05/16 15:07:13;;;;;;;8.35;3.78;;;;;;;25.99;35.40;100528.00;5566073;32;33644;-59
2022/05/16 15:10:15;;;;;;;8.82;3.70;;;;;;;25.94;35.63;100512.66;5567198;32;34248;-59
2022/05/16 15:13:19;;;;;;;6.30;3.78;;;;;;;25.98;36.35;100518.19;5568892;32;34483;-59
2022/05/16 15:16:22;;;;;;;5.93;3.72;;;;;;;26.09;35.59;100510.00;5565469;32;34397;-59
2022/05/16 15:19:26;;;;;;;5.22;3.28;;;;;;;25.97;36.02;100505.63;5549949;32;33700;-59
2022/05/16 15:22:28;;;;;;;7.57;3.40;;;;;;;25.97;35.97;100506.41;5569265;32;34509;-59
2022/05/16 15:25:36;;;;;;;9.38;3.47;;;;;;;25.97;36.13;100505.63;5567401;32;33706;-59
2022/05/16 15:28:38;;;;;;;8.45;3.62;;;;;;;26.05;36.90;100496.25;5564755;32;34340;-60
2022/05/16 15:31:41;;;;;;;5.97;3.30;;;;;;;26.10;35.79;100495.91;5565116;32;33573;-59
2022/05/16 15:34:43;;;;;;;7.22;3.70;;;;;;;26.10;36.92;100493.16;5565049;32;33231;-59
